createdAt,value
2019-05-22T00:01:07.465Z,12.90
2019-05-22T00:03:37.936Z,12.90
2019-05-22T00:06:06.734Z,12.80
2019-05-22T00:08:36.682Z,12.80
2019-05-22T00:11:05.236Z,12.80
2019-05-22T00:13:37.415Z,12.80
2019-05-22T00:16:08.277Z,12.80
2019-05-22T00:18:37.799Z,13.00
2019-05-22T00:21:06.798Z,12.90
2019-05-22T00:23:37.249Z,12.80
2019-05-22T00:26:05.998Z,12.90
2019-05-22T00:28:36.173Z,12.90
2019-05-22T00:31:06.732Z,12.90
2019-05-22T00:33:36.551Z,12.90
2019-05-22T00:36:06.692Z,12.80
2019-05-22T00:38:37.237Z,12.90
2019-05-22T00:41:10.456Z,12.80
2019-05-22T00:43:41.251Z,12.80
2019-05-22T00:46:11.415Z,12.90
2019-05-22T00:48:41.815Z,12.90
2019-05-22T00:51:22.550Z,12.80
2019-05-22T00:54:09.902Z,12.80
2019-05-22T00:56:55.293Z,12.80
2019-05-22T00:59:27.058Z,12.90
2019-05-22T01:02:16.681Z,12.80
2019-05-22T01:04:47.213Z,12.80
2019-05-22T01:07:18.579Z,12.80
2019-05-22T01:09:48.849Z,12.80
2019-05-22T01:12:27.046Z,12.70
2019-05-22T01:14:58.468Z,12.80
2019-05-22T01:17:27.862Z,12.70
2019-05-22T01:19:57.320Z,12.70
2019-05-22T01:22:26.652Z,12.70
2019-05-22T01:24:56.830Z,12.70
2019-05-22T01:27:26.692Z,12.80
2019-05-22T01:29:57.224Z,12.70
2019-05-22T01:32:39.744Z,12.70
2019-05-22T01:35:11.272Z,12.70
2019-05-22T01:37:41.820Z,12.70
2019-05-22T01:40:19.883Z,12.80
2019-05-22T01:42:51.848Z,12.80
2019-05-22T01:45:22.440Z,12.80
2019-05-22T01:47:54.196Z,12.80
2019-05-22T01:50:41.266Z,12.80
2019-05-22T01:53:11.417Z,12.80
2019-05-22T01:55:41.659Z,12.80
2019-05-22T01:58:11.161Z,12.80
2019-05-22T02:00:41.259Z,12.70
2019-05-22T02:03:11.348Z,12.80
2019-05-22T02:05:41.045Z,12.80
2019-05-22T02:08:10.309Z,12.80
2019-05-22T02:10:42.204Z,12.80
2019-05-22T02:13:13.961Z,12.90
2019-05-22T02:15:43.644Z,12.90
2019-05-22T02:18:15.189Z,12.80
2019-05-22T02:20:44.913Z,12.80
2019-05-22T02:23:14.782Z,12.80
2019-05-22T02:25:43.396Z,12.80
2019-05-22T02:28:12.591Z,12.90
2019-05-22T02:30:43.478Z,12.80
2019-05-22T02:33:14.035Z,12.90
2019-05-22T02:35:43.051Z,12.90
2019-05-22T02:38:12.226Z,12.80
2019-05-22T02:40:42.497Z,12.80
2019-05-22T02:43:11.811Z,12.90
2019-05-22T02:45:41.363Z,12.80
2019-05-22T02:48:11.304Z,12.90
2019-05-22T02:50:40.207Z,12.90
2019-05-22T02:53:12.353Z,12.80
2019-05-22T02:55:41.292Z,12.90
2019-05-22T02:58:11.157Z,12.80
2019-05-22T03:00:45.857Z,12.90
2019-05-22T03:03:15.682Z,12.90
2019-05-22T03:05:45.038Z,12.90
2019-05-22T03:08:13.949Z,12.90
2019-05-22T03:10:44.113Z,12.90
2019-05-22T03:13:12.997Z,12.90
2019-05-22T03:15:42.339Z,12.80
2019-05-22T03:18:12.502Z,12.90
2019-05-22T03:20:41.838Z,12.90
2019-05-22T03:23:14.364Z,12.90
2019-05-22T03:25:44.095Z,13.00
2019-05-22T03:28:14.028Z,13.00
2019-05-22T03:30:42.651Z,12.90
2019-05-22T03:33:11.785Z,13.00
2019-05-22T03:35:48.725Z,13.00
2019-05-22T03:38:19.127Z,13.00
2019-05-22T03:40:51.076Z,13.00
2019-05-22T03:43:28.360Z,13.00
2019-05-22T03:45:58.918Z,13.00
2019-05-22T03:48:30.537Z,13.10
2019-05-22T03:51:08.639Z,13.00
2019-05-22T03:53:37.649Z,13.10
2019-05-22T03:56:06.657Z,13.10
2019-05-22T03:58:35.178Z,13.10
2019-05-22T04:01:04.388Z,13.10
2019-05-22T04:03:35.157Z,13.10
2019-05-22T04:06:06.281Z,13.20
2019-05-22T04:08:35.287Z,13.00
2019-05-22T04:11:07.220Z,13.00
2019-05-22T04:13:35.842Z,13.10
2019-05-22T04:16:06.469Z,13.20
2019-05-22T04:18:36.009Z,13.10
2019-05-22T04:21:04.672Z,13.10
2019-05-22T04:23:33.876Z,13.10
2019-05-22T04:26:04.580Z,13.10
2019-05-22T04:28:35.815Z,13.10
2019-05-22T04:31:04.730Z,13.00
2019-05-22T04:33:33.462Z,13.00
2019-05-22T04:36:03.029Z,13.00
2019-05-22T04:38:32.285Z,13.10
2019-05-22T04:41:04.502Z,13.00
2019-05-22T04:43:34.036Z,13.00
2019-05-22T04:46:04.225Z,13.00
2019-05-22T04:48:35.185Z,13.00
2019-05-22T04:51:13.227Z,12.90
2019-05-22T04:53:42.265Z,12.90
2019-05-22T04:56:10.733Z,12.90
2019-05-22T04:58:39.832Z,12.90
2019-05-22T05:01:09.232Z,12.90
2019-05-22T05:03:39.225Z,12.80
2019-05-22T05:06:09.139Z,12.90
2019-05-22T05:08:38.484Z,12.80
2019-05-22T05:11:07.016Z,12.90
2019-05-22T05:13:38.276Z,12.90
2019-05-22T05:16:07.328Z,12.90
2019-05-22T05:18:36.400Z,12.80
2019-05-22T05:21:05.531Z,12.80
2019-05-22T05:23:34.122Z,12.80
2019-05-22T05:26:02.828Z,12.90
2019-05-22T05:28:32.630Z,12.90
2019-05-22T05:31:01.282Z,12.90
2019-05-22T05:33:33.131Z,12.80
2019-05-22T05:36:01.874Z,12.90
2019-05-22T05:38:37.180Z,12.80
2019-05-22T05:41:06.262Z,12.80
2019-05-22T05:43:34.828Z,12.70
2019-05-22T05:46:03.467Z,12.80
2019-05-22T05:48:33.129Z,12.80
2019-05-22T05:51:08.402Z,12.80
2019-05-22T05:53:55.115Z,12.80
2019-05-22T05:56:25.218Z,12.80
2019-05-22T05:58:56.705Z,12.70
2019-05-22T06:01:26.941Z,12.70
2019-05-22T06:03:57.109Z,12.70
2019-05-22T06:06:30.198Z,12.60
2019-05-22T06:09:00.633Z,12.70
2019-05-22T06:11:32.778Z,12.70
2019-05-22T06:14:04.112Z,12.60
2019-05-22T06:16:57.314Z,12.70
2019-05-22T06:19:28.447Z,12.70
2019-05-22T06:21:58.228Z,12.70
2019-05-22T06:24:37.995Z,12.80
2019-05-22T06:27:16.245Z,12.70
2019-05-22T06:30:06.193Z,12.70
2019-05-22T06:33:07.783Z,12.70
2019-05-22T06:35:38.893Z,12.70
2019-05-22T06:38:16.663Z,12.80
2019-05-22T06:40:45.944Z,12.80
2019-05-22T06:43:24.779Z,12.70
2019-05-22T06:45:55.005Z,12.70
2019-05-22T06:48:23.939Z,12.70
2019-05-22T06:50:52.832Z,12.70
2019-05-22T06:53:21.364Z,12.80
2019-05-22T06:55:50.255Z,12.80
2019-05-22T06:58:19.626Z,12.80
2019-05-22T07:00:50.408Z,12.90
2019-05-22T07:03:19.573Z,13.00
2019-05-22T07:05:49.071Z,13.00
2019-05-22T07:08:17.603Z,12.90
2019-05-22T07:10:47.207Z,12.90
2019-05-22T07:13:16.957Z,12.90
2019-05-22T07:15:46.576Z,12.80
2019-05-22T07:18:17.918Z,12.90
2019-05-22T07:20:47.517Z,12.90
2019-05-22T07:23:20.205Z,12.90
2019-05-22T07:25:49.170Z,12.70
2019-05-22T07:28:19.291Z,12.70
2019-05-22T07:30:48.863Z,12.70
2019-05-22T07:33:18.691Z,12.40
2019-05-22T07:36:07.634Z,12.20
2019-05-22T07:38:19.456Z,12.20
2019-05-22T07:40:50.963Z,12.20
2019-05-22T07:43:21.276Z,12.20
2019-05-22T07:45:54.548Z,12.30
2019-05-22T07:48:25.377Z,12.20
2019-05-22T07:50:55.368Z,12.20
2019-05-22T07:53:25.733Z,12.30
2019-05-22T07:55:55.520Z,12.30
2019-05-22T07:58:26.644Z,12.60
2019-05-22T08:00:56.885Z,12.70
2019-05-22T08:03:26.068Z,12.80
2019-05-22T08:05:56.668Z,13.10
2019-05-22T08:08:27.761Z,13.30
2019-05-22T08:10:59.318Z,13.10
2019-05-22T08:13:31.105Z,13.10
2019-05-22T08:15:59.739Z,13.10
2019-05-22T08:18:31.097Z,13.10
2019-05-22T08:20:59.773Z,13.10
2019-05-22T08:23:29.666Z,13.00
2019-05-22T08:25:59.628Z,12.90
2019-05-22T08:28:30.626Z,12.90
2019-05-22T08:31:00.633Z,12.80
2019-05-22T08:33:29.793Z,12.70
2019-05-22T08:35:58.481Z,12.70
2019-05-22T08:38:30.587Z,13.00
2019-05-22T08:41:01.667Z,13.00
2019-05-22T08:43:32.019Z,12.90
2019-05-22T08:46:04.672Z,12.70
2019-05-22T08:48:34.624Z,12.90
2019-05-22T08:51:04.910Z,13.00
2019-05-22T08:53:46.710Z,13.20
2019-05-22T08:56:06.196Z,13.30
2019-05-22T08:58:38.930Z,13.50
2019-05-22T09:01:08.372Z,13.40
2019-05-22T09:03:36.926Z,13.30
2019-05-22T09:06:05.471Z,13.20
2019-05-22T09:08:34.743Z,13.20
2019-05-22T09:11:03.889Z,13.20
2019-05-22T09:13:32.978Z,13.60
2019-05-22T09:16:02.009Z,13.60
2019-05-22T09:18:31.777Z,13.30
2019-05-22T09:21:00.644Z,13.30
2019-05-22T09:23:29.444Z,13.00
2019-05-22T09:25:58.300Z,12.90
2019-05-22T09:28:26.811Z,12.90
2019-05-22T09:30:55.709Z,12.90
2019-05-22T09:33:25.741Z,13.10
2019-05-22T09:35:54.203Z,13.20
2019-05-22T09:38:22.728Z,13.40
2019-05-22T09:40:52.130Z,13.40
2019-05-22T09:43:22.120Z,13.60
2019-05-22T09:45:50.656Z,13.40
2019-05-22T09:48:20.095Z,13.50
2019-05-22T09:50:50.132Z,13.50
2019-05-22T09:53:21.021Z,13.70
2019-05-22T09:55:50.530Z,13.90
2019-05-22T09:58:19.047Z,14.10
2019-05-22T10:00:47.905Z,13.90
2019-05-22T10:03:16.933Z,13.50
2019-05-22T10:05:45.690Z,13.30
2019-05-22T10:08:15.114Z,13.10
2019-05-22T10:10:44.071Z,12.80
2019-05-22T10:13:13.080Z,12.70
2019-05-22T10:15:43.217Z,12.70
2019-05-22T10:18:12.947Z,12.90
2019-05-22T10:20:41.487Z,13.00
2019-05-22T10:23:15.310Z,13.20
2019-05-22T10:25:40.899Z,13.70
2019-05-22T10:28:09.430Z,14.00
2019-05-22T10:30:37.967Z,14.70
2019-05-22T10:33:07.700Z,15.20
2019-05-22T10:35:37.440Z,15.50
2019-05-22T10:38:05.979Z,15.20
2019-05-22T10:40:34.433Z,15.20
2019-05-22T10:43:03.005Z,14.90
2019-05-22T10:45:31.676Z,14.90
2019-05-22T10:48:00.400Z,14.30
2019-05-22T10:50:29.322Z,14.20
2019-05-22T10:52:58.388Z,13.90
2019-05-22T10:55:27.188Z,13.80
2019-05-22T10:57:55.748Z,13.70
2019-05-22T11:00:25.039Z,13.40
2019-05-22T11:02:53.854Z,13.60
2019-05-22T11:05:22.494Z,13.60
2019-05-22T11:07:59.141Z,13.50
2019-05-22T11:10:26.314Z,13.40
2019-05-22T11:12:55.104Z,13.50
2019-05-22T11:15:24.373Z,13.40
2019-05-22T11:17:54.493Z,13.40
2019-05-22T11:20:23.784Z,13.50
2019-05-22T11:22:53.203Z,13.70
2019-05-22T11:25:22.871Z,13.70
2019-05-22T11:27:54.653Z,13.60
2019-05-22T11:30:23.994Z,13.50
2019-05-22T11:32:53.940Z,13.50
2019-05-22T11:35:23.783Z,13.50
2019-05-22T11:37:52.360Z,13.40
2019-05-22T11:40:23.811Z,13.20
2019-05-22T11:42:53.648Z,13.20
2019-05-22T11:45:22.713Z,13.20
2019-05-22T11:47:54.533Z,13.50
2019-05-22T11:50:27.823Z,13.90
2019-05-22T11:52:56.429Z,14.60
2019-05-22T11:55:42.839Z,15.10
2019-05-22T11:57:55.204Z,15.40
2019-05-22T12:00:24.870Z,15.50
2019-05-22T12:02:54.489Z,15.90
2019-05-22T12:05:23.988Z,16.30
2019-05-22T12:07:53.568Z,16.60
2019-05-22T12:10:23.390Z,17.10
2019-05-22T12:12:53.640Z,17.00
2019-05-22T12:15:24.984Z,16.20
2019-05-22T12:17:53.584Z,15.30
2019-05-22T12:20:26.246Z,15.00
2019-05-22T12:22:55.596Z,15.30
2019-05-22T12:25:24.647Z,15.30
2019-05-22T12:27:53.829Z,15.30
2019-05-22T12:30:22.933Z,15.10
2019-05-22T12:32:52.266Z,14.90
2019-05-22T12:35:22.143Z,14.90
2019-05-22T12:37:51.115Z,15.20
2019-05-22T12:40:22.030Z,15.10
2019-05-22T12:42:52.768Z,15.40
2019-05-22T12:45:29.896Z,15.50
2019-05-22T12:48:00.770Z,15.80
2019-05-22T12:50:31.624Z,15.70
2019-05-22T12:53:03.463Z,15.20
2019-05-22T12:55:36.086Z,15.50
2019-05-22T12:58:05.977Z,16.00
2019-05-22T13:00:35.486Z,16.30
2019-05-22T13:03:07.805Z,15.70
2019-05-22T13:05:37.673Z,15.30
2019-05-22T13:08:06.843Z,15.10
2019-05-22T13:10:36.092Z,15.30
2019-05-22T13:13:05.088Z,15.60
2019-05-22T13:15:35.307Z,15.80
2019-05-22T13:18:05.548Z,15.90
2019-05-22T13:20:43.136Z,15.80
2019-05-22T13:23:09.397Z,15.80
2019-05-22T13:25:42.715Z,15.70
2019-05-22T13:28:14.545Z,15.70
2019-05-22T13:30:46.554Z,15.60
2019-05-22T13:33:17.829Z,15.90
2019-05-22T13:35:47.279Z,16.10
2019-05-22T13:38:17.028Z,16.80
2019-05-22T13:40:46.247Z,16.60
2019-05-22T13:43:16.389Z,16.90
2019-05-22T13:45:44.999Z,17.00
2019-05-22T13:48:13.968Z,16.30
2019-05-22T13:50:42.724Z,16.00
2019-05-22T13:53:15.602Z,15.80
2019-05-22T13:55:45.265Z,15.80
2019-05-22T13:58:14.305Z,16.00
2019-05-22T14:00:42.908Z,15.80
2019-05-22T14:03:11.839Z,16.30
2019-05-22T14:05:46.268Z,16.50
2019-05-22T14:08:18.517Z,16.50
2019-05-22T14:10:49.609Z,16.70
2019-05-22T14:13:18.128Z,16.50
2019-05-22T14:15:54.713Z,15.90
2019-05-22T14:18:17.392Z,15.70
2019-05-22T14:20:46.763Z,15.50
2019-05-22T14:23:15.753Z,15.50
2019-05-22T14:25:45.005Z,15.80
2019-05-22T14:28:17.278Z,16.10
2019-05-22T14:30:45.103Z,16.00
2019-05-22T14:33:13.656Z,15.90
2019-05-22T14:35:48.726Z,15.90
2019-05-22T14:38:14.683Z,16.20
2019-05-22T14:40:43.816Z,16.50
2019-05-22T14:43:13.315Z,16.60
2019-05-22T14:45:43.318Z,17.00
2019-05-22T14:48:12.683Z,17.20
2019-05-22T14:50:41.318Z,16.30
2019-05-22T14:53:11.611Z,16.50
2019-05-22T14:55:41.061Z,16.90
2019-05-22T14:58:09.952Z,16.80
2019-05-22T15:00:40.400Z,16.40
2019-05-22T15:03:33.706Z,16.10
2019-05-22T15:06:22.812Z,16.50
2019-05-22T15:08:53.317Z,15.90
2019-05-22T15:11:30.378Z,16.10
2019-05-22T15:13:58.884Z,16.30
2019-05-22T15:16:27.905Z,16.30
2019-05-22T15:18:56.456Z,16.70
2019-05-22T15:21:25.424Z,17.20
2019-05-22T15:23:55.088Z,17.30
2019-05-22T15:26:23.620Z,17.30
2019-05-22T15:28:52.165Z,17.00
2019-05-22T15:31:20.705Z,16.60
2019-05-22T15:33:49.323Z,16.20
2019-05-22T15:36:21.107Z,16.00
2019-05-22T15:38:50.494Z,15.60
2019-05-22T15:41:19.308Z,15.20
2019-05-22T15:43:52.689Z,15.60
2019-05-22T15:46:19.948Z,16.00
2019-05-22T15:48:50.355Z,16.30
2019-05-22T15:51:22.271Z,16.30
2019-05-22T15:53:52.759Z,16.30
2019-05-22T15:56:21.950Z,16.50
2019-05-22T15:58:54.084Z,16.50
2019-05-22T16:01:25.563Z,16.20
2019-05-22T16:03:56.295Z,16.20
2019-05-22T16:06:25.921Z,16.10
2019-05-22T16:08:54.992Z,16.20
2019-05-22T16:11:26.534Z,16.40
2019-05-22T16:13:56.872Z,16.20
2019-05-22T16:16:26.826Z,16.20
2019-05-22T16:18:58.353Z,16.10
2019-05-22T16:21:29.436Z,16.20
2019-05-22T16:24:04.685Z,16.20
2019-05-22T16:26:33.287Z,16.00
2019-05-22T16:29:02.216Z,16.00
2019-05-22T16:31:32.798Z,16.00
2019-05-22T16:34:01.691Z,16.00
2019-05-22T16:36:31.044Z,16.00
2019-05-22T16:39:00.714Z,16.00
2019-05-22T16:41:31.509Z,15.80
2019-05-22T16:44:02.590Z,15.60
2019-05-22T16:46:32.463Z,15.50
2019-05-22T16:49:00.984Z,15.30
2019-05-22T16:51:30.668Z,15.30
2019-05-22T16:54:05.394Z,15.40
2019-05-22T16:56:35.216Z,15.20
2019-05-22T16:59:06.185Z,15.30
2019-05-22T17:01:56.222Z,15.40
2019-05-22T17:04:07.501Z,15.50
2019-05-22T17:06:37.346Z,15.50
2019-05-22T17:09:09.519Z,15.50
2019-05-22T17:11:38.335Z,15.40
2019-05-22T17:14:08.512Z,15.60
2019-05-22T17:16:39.676Z,15.80
2019-05-22T17:19:25.857Z,16.00
2019-05-22T17:21:39.360Z,16.30
2019-05-22T17:24:10.625Z,16.30
2019-05-22T17:26:39.848Z,16.10
2019-05-22T17:29:10.475Z,16.30
2019-05-22T17:31:39.306Z,16.30
2019-05-22T17:34:09.496Z,15.70
2019-05-22T17:36:38.424Z,15.80
2019-05-22T17:39:09.732Z,15.90
2019-05-22T17:41:43.242Z,15.90
2019-05-22T17:44:13.202Z,15.80
2019-05-22T17:46:46.243Z,15.80
2019-05-22T17:49:14.761Z,15.70
2019-05-22T17:51:43.633Z,15.70
2019-05-22T17:54:12.737Z,15.50
2019-05-22T17:56:41.250Z,15.50
2019-05-22T17:59:09.802Z,15.30
2019-05-22T18:01:38.393Z,15.20
2019-05-22T18:04:10.497Z,15.20
2019-05-22T18:06:38.972Z,15.10
2019-05-22T18:09:08.872Z,15.10
2019-05-22T18:11:37.325Z,15.00
2019-05-22T18:14:07.534Z,14.90
2019-05-22T18:16:36.050Z,14.90
2019-05-22T18:19:05.459Z,14.90
2019-05-22T18:21:34.628Z,14.90
2019-05-22T18:24:03.922Z,14.90
2019-05-22T18:26:32.799Z,14.80
2019-05-22T18:29:01.322Z,14.70
2019-05-22T18:31:30.443Z,14.80
2019-05-22T18:33:58.907Z,14.70
2019-05-22T18:36:27.371Z,14.70
2019-05-22T18:38:56.114Z,14.70
2019-05-22T18:41:25.205Z,14.70
2019-05-22T18:43:56.073Z,14.60
2019-05-22T18:46:24.685Z,14.60
2019-05-22T18:48:53.136Z,14.50
2019-05-22T18:51:21.620Z,14.40
2019-05-22T18:53:50.433Z,14.20
2019-05-22T18:56:19.670Z,14.30
2019-05-22T18:58:48.215Z,14.30
2019-05-22T19:01:16.756Z,14.20
2019-05-22T19:03:45.268Z,14.20
2019-05-22T19:06:13.865Z,14.20
2019-05-22T19:08:42.322Z,14.20
2019-05-22T19:11:10.775Z,14.20
2019-05-22T19:13:39.238Z,13.90
2019-05-22T19:16:07.859Z,13.90
2019-05-22T19:18:36.446Z,13.90
2019-05-22T19:21:05.270Z,14.10
2019-05-22T19:23:33.820Z,14.00
2019-05-22T19:26:05.543Z,13.70
2019-05-22T19:28:43.996Z,13.60
2019-05-22T19:31:12.266Z,13.40
2019-05-22T19:33:40.800Z,13.40
2019-05-22T19:36:09.410Z,13.40
2019-05-22T19:38:37.937Z,13.60
2019-05-22T19:41:06.413Z,13.50
2019-05-22T19:43:36.571Z,13.40
2019-05-22T19:46:05.096Z,13.30
2019-05-22T19:48:34.012Z,13.40
2019-05-22T19:51:04.275Z,13.50
2019-05-22T19:53:33.234Z,13.60
2019-05-22T19:56:01.906Z,13.60
2019-05-22T19:58:30.516Z,13.60
2019-05-22T20:00:59.054Z,13.60
2019-05-22T20:03:29.639Z,13.50
2019-05-22T20:05:58.347Z,13.30
2019-05-22T20:08:26.897Z,13.30
2019-05-22T20:10:55.658Z,13.30
2019-05-22T20:13:24.708Z,13.30
2019-05-22T20:15:53.433Z,13.30
2019-05-22T20:18:22.264Z,13.20
2019-05-22T20:20:51.683Z,13.20
2019-05-22T20:23:34.545Z,13.00
2019-05-22T20:25:50.681Z,12.80
2019-05-22T20:28:20.054Z,12.80
2019-05-22T20:30:48.780Z,12.90
2019-05-22T20:33:18.170Z,12.80
2019-05-22T20:35:46.718Z,12.80
2019-05-22T20:38:15.250Z,12.80
2019-05-22T20:40:45.031Z,12.70
2019-05-22T20:43:14.827Z,12.60
2019-05-22T20:45:45.605Z,12.70
2019-05-22T20:48:17.420Z,12.60
2019-05-22T20:50:46.396Z,12.60
2019-05-22T20:53:16.101Z,12.50
2019-05-22T20:55:45.538Z,12.40
2019-05-22T20:58:14.483Z,12.30
2019-05-22T21:00:43.678Z,12.00
2019-05-22T21:03:13.468Z,11.80
2019-05-22T21:05:43.454Z,11.60
2019-05-22T21:08:13.435Z,11.70
2019-05-22T21:10:45.100Z,11.60
2019-05-22T21:13:16.428Z,11.30
2019-05-22T21:15:46.500Z,11.20
2019-05-22T21:18:16.753Z,11.20
2019-05-22T21:20:54.725Z,11.30
2019-05-22T21:23:16.737Z,11.30
2019-05-22T21:25:45.717Z,11.10
2019-05-22T21:28:14.513Z,11.10
2019-05-22T21:30:43.615Z,11.00
2019-05-22T21:33:13.751Z,11.10
2019-05-22T21:35:42.635Z,11.00
2019-05-22T21:38:11.945Z,10.90
2019-05-22T21:40:40.742Z,10.90
2019-05-22T21:43:09.297Z,10.80
2019-05-22T21:45:37.887Z,10.80
2019-05-22T21:48:07.091Z,10.80
2019-05-22T21:50:35.701Z,10.70
2019-05-22T21:53:07.332Z,10.70
2019-05-22T21:55:36.634Z,10.70
2019-05-22T21:58:05.536Z,10.70
2019-05-22T22:00:49.697Z,10.70
2019-05-22T22:03:22.064Z,10.70
2019-05-22T22:05:50.511Z,10.70
2019-05-22T22:08:18.996Z,10.70
2019-05-22T22:10:48.205Z,10.70
2019-05-22T22:13:17.332Z,10.80
2019-05-22T22:15:46.261Z,10.70
2019-05-22T22:18:15.485Z,10.60
2019-05-22T22:20:44.432Z,10.90
2019-05-22T22:23:15.228Z,11.00
2019-05-22T22:25:44.159Z,11.00
2019-05-22T22:28:15.467Z,11.00
2019-05-22T22:30:48.649Z,10.90
2019-05-22T22:33:20.580Z,10.60
2019-05-22T22:35:51.011Z,10.60
2019-05-22T22:38:21.761Z,10.60
2019-05-22T22:40:51.891Z,10.50
2019-05-22T22:43:22.053Z,10.80
2019-05-22T22:45:53.701Z,10.90
2019-05-22T22:48:23.875Z,10.90
2019-05-22T22:50:52.613Z,11.10
2019-05-22T22:53:21.229Z,11.20
2019-05-22T22:55:50.025Z,11.20
2019-05-22T22:58:19.492Z,11.30
2019-05-22T23:00:49.291Z,11.10
2019-05-22T23:03:21.838Z,10.80
2019-05-22T23:05:51.404Z,10.70
2019-05-22T23:08:26.063Z,10.80
2019-05-22T23:10:54.695Z,10.60
2019-05-22T23:13:23.653Z,10.60
2019-05-22T23:15:54.016Z,10.90
2019-05-22T23:18:45.420Z,11.10
2019-05-22T23:21:14.425Z,11.00
2019-05-22T23:23:41.816Z,10.90
2019-05-22T23:26:11.681Z,10.80
2019-05-22T23:28:41.857Z,10.80
2019-05-22T23:31:11.660Z,10.70
2019-05-22T23:33:40.587Z,10.60
2019-05-22T23:36:10.786Z,10.50
2019-05-22T23:38:39.692Z,10.40
2019-05-22T23:41:08.895Z,10.50
2019-05-22T23:43:38.095Z,10.40
2019-05-22T23:46:08.563Z,10.40
2019-05-22T23:48:38.049Z,10.30
2019-05-22T23:51:08.187Z,10.20
2019-05-22T23:53:37.771Z,10.20
2019-05-22T23:56:06.629Z,10.20
2019-05-22T23:58:49.795Z,10.10
